createdAt,value
2018-04-04T00:01:59.416Z,15.30
2018-04-04T00:04:26.910Z,15.30
2018-04-04T00:06:54.400Z,15.40
2018-04-04T00:09:21.929Z,15.30
2018-04-04T00:11:49.426Z,15.30
2018-04-04T00:14:16.921Z,15.20
2018-04-04T00:16:44.509Z,15.00
2018-04-04T00:19:11.985Z,14.80
2018-04-04T00:21:40.242Z,14.90
2018-04-04T00:24:07.727Z,14.80
2018-04-04T00:26:35.265Z,14.90
2018-04-04T00:29:02.760Z,14.90
2018-04-04T00:31:30.252Z,14.90
2018-04-04T00:33:57.773Z,14.80
2018-04-04T00:36:25.263Z,14.80
2018-04-04T00:38:52.757Z,14.80
2018-04-04T00:41:23.493Z,14.60
2018-04-04T00:43:51.236Z,14.60
2018-04-04T00:46:18.724Z,14.60
2018-04-04T00:48:46.248Z,14.50
2018-04-04T00:51:13.744Z,14.50
2018-04-04T00:53:41.232Z,14.40
2018-04-04T00:56:08.749Z,14.40
2018-04-04T00:58:36.242Z,14.40
2018-04-04T01:01:03.743Z,14.40
2018-04-04T01:03:31.265Z,14.40
2018-04-04T01:05:58.756Z,14.30
2018-04-04T01:08:28.181Z,14.30
2018-04-04T01:10:55.708Z,14.20
2018-04-04T01:13:23.961Z,14.10
2018-04-04T01:15:51.463Z,14.00
2018-04-04T01:18:19.754Z,14.00
2018-04-04T01:20:48.014Z,14.10
2018-04-04T01:23:15.509Z,14.10
2018-04-04T01:25:43.796Z,14.30
2018-04-04T01:28:12.053Z,14.30
2018-04-04T01:30:39.548Z,14.20
2018-04-04T01:33:07.080Z,14.20
2018-04-04T01:35:34.573Z,14.20
2018-04-04T01:38:02.090Z,14.10
2018-04-04T01:40:29.629Z,14.00
2018-04-04T01:42:57.124Z,14.00
2018-04-04T01:45:24.612Z,14.00
2018-04-04T01:47:52.142Z,14.00
2018-04-04T01:50:19.636Z,14.00
2018-04-04T01:52:47.940Z,14.00
2018-04-04T01:55:15.434Z,14.00
2018-04-04T01:57:42.916Z,14.00
2018-04-04T02:00:10.442Z,13.90
2018-04-04T02:02:37.943Z,14.00
2018-04-04T02:05:05.447Z,14.10
2018-04-04T02:07:32.998Z,14.10
2018-04-04T02:10:00.497Z,14.20
2018-04-04T02:12:27.991Z,14.30
2018-04-04T02:14:55.533Z,14.20
2018-04-04T02:17:23.086Z,14.30
2018-04-04T02:19:50.577Z,14.30
2018-04-04T02:22:18.110Z,14.30
2018-04-04T02:24:45.596Z,14.30
2018-04-04T02:27:13.093Z,14.20
2018-04-04T02:29:41.396Z,14.30
2018-04-04T02:32:09.661Z,14.40
2018-04-04T02:34:37.155Z,14.30
2018-04-04T02:37:05.450Z,14.30
2018-04-04T02:39:32.950Z,14.20
2018-04-04T02:42:00.450Z,14.10
2018-04-04T02:44:27.986Z,13.90
2018-04-04T02:46:55.494Z,13.90
2018-04-04T02:49:22.991Z,13.90
2018-04-04T02:51:51.281Z,13.90
2018-04-04T02:54:19.554Z,13.90
2018-04-04T02:56:47.839Z,13.80
2018-04-04T02:59:15.381Z,13.70
2018-04-04T03:01:42.869Z,13.70
2018-04-04T03:04:10.408Z,13.60
2018-04-04T03:06:37.931Z,13.50
2018-04-04T03:09:06.190Z,13.40
2018-04-04T03:11:33.693Z,13.40
2018-04-04T03:14:01.995Z,13.40
2018-04-04T03:16:29.488Z,13.40
2018-04-04T03:18:56.999Z,13.70
2018-04-04T03:21:24.538Z,13.70
2018-04-04T03:23:52.043Z,13.80
2018-04-04T03:26:19.542Z,14.00
2018-04-04T03:28:47.856Z,13.90
2018-04-04T03:31:15.358Z,13.90
2018-04-04T03:33:42.860Z,13.60
2018-04-04T03:36:11.162Z,13.60
2018-04-04T03:38:39.426Z,13.50
2018-04-04T03:41:06.935Z,13.40
2018-04-04T03:43:34.473Z,13.40
2018-04-04T03:46:01.978Z,13.40
2018-04-04T03:48:29.479Z,13.30
2018-04-04T03:50:57.004Z,13.20
2018-04-04T03:53:24.488Z,13.40
2018-04-04T03:55:51.990Z,13.40
2018-04-04T03:58:19.518Z,13.40
2018-04-04T04:00:47.040Z,13.60
2018-04-04T04:03:14.536Z,13.70
2018-04-04T04:05:42.068Z,13.70
2018-04-04T04:08:09.558Z,13.70
2018-04-04T04:10:37.058Z,13.60
2018-04-04T04:13:05.359Z,13.30
2018-04-04T04:15:33.619Z,13.60
2018-04-04T04:18:01.117Z,13.60
2018-04-04T04:20:29.425Z,13.50
2018-04-04T04:22:56.941Z,13.50
2018-04-04T04:25:24.467Z,13.50
2018-04-04T04:27:51.966Z,13.60
2018-04-04T04:30:19.465Z,13.60
2018-04-04T04:32:47.010Z,13.50
2018-04-04T04:35:14.514Z,13.30
2018-04-04T04:37:42.804Z,13.80
2018-04-04T04:40:11.059Z,13.70
2018-04-04T04:42:38.553Z,13.60
2018-04-04T04:45:06.099Z,13.70
2018-04-04T04:47:33.585Z,13.80
2018-04-04T04:50:01.101Z,13.70
2018-04-04T04:52:29.388Z,13.50
2018-04-04T04:54:56.867Z,13.50
2018-04-04T04:57:24.360Z,13.60
2018-04-04T04:59:51.879Z,13.50
2018-04-04T05:02:20.137Z,13.40
2018-04-04T05:04:47.633Z,13.30
2018-04-04T05:07:15.926Z,13.50
2018-04-04T05:09:44.176Z,13.50
2018-04-04T05:12:11.678Z,13.40
2018-04-04T05:14:39.205Z,13.50
2018-04-04T05:17:06.692Z,13.50
2018-04-04T05:19:34.188Z,13.50
2018-04-04T05:22:02.503Z,13.50
2018-04-04T05:24:29.992Z,13.40
2018-04-04T05:26:57.479Z,13.50
2018-04-04T05:29:26.921Z,13.60
2018-04-04T05:31:54.411Z,13.70
2018-04-04T05:34:22.714Z,13.60
2018-04-04T05:36:50.215Z,13.60
2018-04-04T05:39:17.712Z,13.60
2018-04-04T05:41:45.250Z,13.60
2018-04-04T05:44:13.069Z,13.60
2018-04-04T05:46:40.568Z,13.50
2018-04-04T05:49:08.864Z,13.40
2018-04-04T05:51:37.126Z,13.40
2018-04-04T05:54:04.625Z,13.30
2018-04-04T05:56:32.152Z,13.40
2018-04-04T05:58:59.649Z,13.40
2018-04-04T06:01:27.924Z,13.40
2018-04-04T06:03:55.468Z,13.40
2018-04-04T06:06:22.973Z,13.50
2018-04-04T06:08:56.877Z,13.60
2018-04-04T06:11:24.392Z,13.50
2018-04-04T06:13:51.914Z,13.30
2018-04-04T06:16:19.445Z,12.90
2018-04-04T06:18:46.948Z,12.80
2018-04-04T06:21:14.447Z,12.50
2018-04-04T06:23:42.743Z,12.30
2018-04-04T06:26:11.011Z,12.30
2018-04-04T06:28:38.523Z,12.20
2018-04-04T06:31:06.062Z,12.20
2018-04-04T06:33:34.328Z,12.30
2018-04-04T06:36:01.820Z,12.30
2018-04-04T06:38:29.361Z,12.40
2018-04-04T06:40:56.860Z,12.50
2018-04-04T06:43:24.362Z,12.60
2018-04-04T06:45:51.901Z,12.70
2018-04-04T06:48:19.388Z,12.80
2018-04-04T06:50:46.901Z,12.90
2018-04-04T06:53:14.428Z,12.80
2018-04-04T06:55:42.672Z,12.70
2018-04-04T06:58:10.178Z,12.70
2018-04-04T07:00:38.493Z,12.80
2018-04-04T07:03:06.004Z,12.80
2018-04-04T07:05:33.496Z,13.00
2018-04-04T07:08:01.025Z,12.90
2018-04-04T07:10:28.534Z,12.90
2018-04-04T07:12:56.024Z,12.90
2018-04-04T07:15:24.326Z,12.80
2018-04-04T07:17:51.825Z,12.80
2018-04-04T07:20:19.337Z,12.90
2018-04-04T07:22:46.873Z,12.90
2018-04-04T07:25:14.368Z,12.80
2018-04-04T07:27:41.870Z,12.90
2018-04-04T07:30:10.215Z,12.80
2018-04-04T07:32:37.676Z,12.70
2018-04-04T07:35:05.172Z,12.70
2018-04-04T07:37:32.709Z,12.80
2018-04-04T07:40:00.970Z,12.80
2018-04-04T07:42:28.827Z,12.70
2018-04-04T07:44:57.115Z,12.70
2018-04-04T07:47:25.379Z,12.80
2018-04-04T07:49:52.884Z,12.70
2018-04-04T07:52:21.190Z,12.80
2018-04-04T07:54:48.693Z,12.80
2018-04-04T07:57:16.182Z,12.90
2018-04-04T07:59:43.784Z,13.00
2018-04-04T08:02:11.229Z,12.90
2018-04-04T08:04:38.726Z,12.90
2018-04-04T08:07:07.040Z,13.00
2018-04-04T08:09:34.528Z,13.00
2018-04-04T08:12:02.033Z,13.00
2018-04-04T08:14:29.585Z,13.10
2018-04-04T08:16:57.090Z,13.10
2018-04-04T08:19:25.382Z,13.10
2018-04-04T08:21:52.893Z,13.10
2018-04-04T08:24:20.382Z,13.20
2018-04-04T08:26:47.873Z,13.20
2018-04-04T08:29:15.417Z,13.30
2018-04-04T08:31:42.918Z,13.40
2018-04-04T08:34:10.411Z,13.50
2018-04-04T08:36:38.713Z,13.60
2018-04-04T08:39:06.211Z,13.60
2018-04-04T08:41:33.716Z,13.70
2018-04-04T08:44:01.264Z,13.70
2018-04-04T08:46:28.751Z,13.80
2018-04-04T08:48:56.245Z,13.90
2018-04-04T08:51:24.532Z,14.00
2018-04-04T08:53:52.785Z,14.10
2018-04-04T08:56:20.343Z,14.00
2018-04-04T08:58:47.812Z,14.10
2018-04-04T09:01:15.301Z,14.00
2018-04-04T09:03:42.824Z,14.10
2018-04-04T09:06:10.337Z,14.10
2018-04-04T09:08:37.845Z,14.20
2018-04-04T09:11:06.149Z,14.30
2018-04-04T09:13:33.653Z,14.20
2018-04-04T09:16:01.142Z,14.30
2018-04-04T09:18:28.698Z,14.20
2018-04-04T09:20:56.185Z,14.40
2018-04-04T09:23:23.685Z,14.50
2018-04-04T09:25:51.977Z,14.80
2018-04-04T09:28:20.231Z,15.10
2018-04-04T09:30:47.723Z,15.00
2018-04-04T09:33:15.245Z,15.30
2018-04-04T09:35:42.746Z,15.70
2018-04-04T09:38:10.237Z,15.90
2018-04-04T09:40:37.765Z,16.10
2018-04-04T09:43:05.255Z,16.40
2018-04-04T09:45:32.749Z,16.60
2018-04-04T09:48:00.277Z,16.50
2018-04-04T09:50:27.769Z,16.60
2018-04-04T09:52:55.273Z,16.30
2018-04-04T09:55:23.574Z,16.30
2018-04-04T09:57:51.070Z,16.30
2018-04-04T10:00:21.162Z,16.50
2018-04-04T10:02:49.477Z,16.70
2018-04-04T10:05:16.977Z,16.60
2018-04-04T10:07:44.481Z,16.90
2018-04-04T10:10:12.775Z,16.90
2018-04-04T10:12:41.037Z,17.00
2018-04-04T10:15:08.528Z,17.00
2018-04-04T10:17:36.843Z,17.40
2018-04-04T10:20:04.347Z,17.40
2018-04-04T10:22:31.849Z,17.70
2018-04-04T10:24:59.392Z,17.80
2018-04-04T10:27:26.889Z,17.80
2018-04-04T10:29:54.395Z,18.10
2018-04-04T10:32:21.924Z,18.30
2018-04-04T10:34:49.425Z,18.20
2018-04-04T10:37:17.702Z,18.30
2018-04-04T10:39:45.993Z,18.30
2018-04-04T10:42:14.249Z,18.30
2018-04-04T10:44:41.748Z,18.30
2018-04-04T10:47:09.294Z,18.20
2018-04-04T10:49:36.793Z,18.20
2018-04-04T10:52:05.053Z,18.20
2018-04-04T10:54:32.580Z,18.20
2018-04-04T10:57:00.074Z,18.20
2018-04-04T10:59:27.573Z,17.90
2018-04-04T11:01:55.103Z,17.80
2018-04-04T11:04:22.596Z,17.70
2018-04-04T11:06:50.102Z,17.70
2018-04-04T11:09:18.405Z,17.80
2018-04-04T11:11:46.664Z,17.90
2018-04-04T11:14:14.854Z,17.80
2018-04-04T11:16:42.393Z,18.10
2018-04-04T11:19:09.895Z,18.20
2018-04-04T11:21:37.394Z,18.30
2018-04-04T11:24:04.937Z,18.20
2018-04-04T11:26:32.442Z,18.20
2018-04-04T11:28:59.943Z,18.20
2018-04-04T11:31:27.477Z,18.20
2018-04-04T11:33:54.978Z,18.10
2018-04-04T11:36:22.477Z,18.00
2018-04-04T11:38:50.013Z,18.00
2018-04-04T11:41:18.283Z,17.90
2018-04-04T11:43:45.843Z,17.80
2018-04-04T11:46:13.362Z,17.70
2018-04-04T11:48:40.865Z,17.80
2018-04-04T11:51:08.379Z,17.90
2018-04-04T11:53:35.917Z,18.00
2018-04-04T11:56:04.181Z,18.30
2018-04-04T11:58:31.713Z,18.30
2018-04-04T12:00:59.217Z,18.40
2018-04-04T12:03:26.746Z,18.50
2018-04-04T12:05:54.248Z,18.50
2018-04-04T12:08:21.758Z,18.50
2018-04-04T12:10:50.051Z,18.50
2018-04-04T12:13:18.316Z,18.60
2018-04-04T12:15:45.821Z,18.50
2018-04-04T12:18:13.372Z,18.70
2018-04-04T12:20:40.985Z,18.60
2018-04-04T12:23:08.480Z,18.50
2018-04-04T12:25:36.005Z,18.50
2018-04-04T12:28:04.256Z,18.40
2018-04-04T12:30:31.797Z,18.30
2018-04-04T12:32:59.293Z,18.30
2018-04-04T12:35:26.800Z,18.30
2018-04-04T12:37:55.099Z,18.30
2018-04-04T12:40:22.606Z,18.30
2018-04-04T12:42:50.100Z,18.30
2018-04-04T12:45:17.649Z,18.10
2018-04-04T12:47:45.204Z,18.10
2018-04-04T12:50:13.425Z,18.00
2018-04-04T12:52:40.954Z,17.90
2018-04-04T12:55:08.456Z,17.90
2018-04-04T12:57:35.962Z,17.70
2018-04-04T13:00:04.244Z,17.40
2018-04-04T13:02:31.743Z,17.40
2018-04-04T13:05:00.008Z,17.40
2018-04-04T13:07:28.317Z,17.40
2018-04-04T13:09:55.825Z,17.30
2018-04-04T13:12:23.330Z,17.20
2018-04-04T13:14:50.872Z,17.00
2018-04-04T13:17:18.373Z,16.70
2018-04-04T13:19:46.641Z,16.20
2018-04-04T13:22:14.177Z,16.10
2018-04-04T13:24:41.684Z,15.80
2018-04-04T13:27:09.180Z,15.60
2018-04-04T13:29:37.488Z,15.20
2018-04-04T13:32:04.998Z,15.20
2018-04-04T13:34:32.505Z,15.10
2018-04-04T13:37:00.810Z,14.50
2018-04-04T13:39:28.311Z,14.50
2018-04-04T13:41:55.864Z,14.40
2018-04-04T13:44:23.357Z,14.30
2018-04-04T13:46:50.845Z,14.40
2018-04-04T13:49:18.334Z,14.40
2018-04-04T13:51:45.869Z,14.30
2018-04-04T13:54:13.368Z,14.30
2018-04-04T13:56:40.860Z,14.40
2018-04-04T13:59:09.155Z,14.30
2018-04-04T14:01:36.674Z,14.30
2018-04-04T14:04:04.176Z,14.30
2018-04-04T14:06:31.698Z,14.30
2018-04-04T14:08:59.189Z,14.10
2018-04-04T14:11:26.672Z,14.10
2018-04-04T14:13:54.216Z,14.00
2018-04-04T14:16:21.720Z,14.10
2018-04-04T14:18:49.213Z,14.00
2018-04-04T14:21:17.517Z,13.70
2018-04-04T14:23:45.017Z,13.60
2018-04-04T14:26:12.511Z,13.50
2018-04-04T14:28:40.048Z,13.60
2018-04-04T14:31:07.546Z,13.80
2018-04-04T14:33:35.041Z,13.70
2018-04-04T14:36:02.573Z,13.60
2018-04-04T14:38:30.061Z,13.30
2018-04-04T14:40:57.553Z,13.50
2018-04-04T14:43:25.090Z,13.60
2018-04-04T14:45:52.589Z,13.70
2018-04-04T14:48:20.109Z,13.40
2018-04-04T14:50:47.643Z,13.30
2018-04-04T14:53:15.908Z,13.20
2018-04-04T14:55:43.403Z,13.10
2018-04-04T14:58:11.706Z,13.40
2018-04-04T15:00:39.965Z,13.60
2018-04-04T15:03:07.474Z,13.50
2018-04-04T15:05:35.000Z,13.70
2018-04-04T15:08:02.527Z,13.60
2018-04-04T15:10:30.014Z,13.90
2018-04-04T15:12:57.583Z,13.80
2018-04-04T15:15:25.092Z,13.90
2018-04-04T15:17:52.598Z,13.90
2018-04-04T15:20:20.130Z,14.00
2018-04-04T15:22:47.629Z,14.00
2018-04-04T15:25:15.899Z,13.90
2018-04-04T15:27:43.422Z,13.80
2018-04-04T15:30:10.933Z,13.90
2018-04-04T15:32:38.474Z,13.90
2018-04-04T15:35:05.982Z,14.00
2018-04-04T15:37:34.261Z,14.00
2018-04-04T15:40:01.806Z,14.00
2018-04-04T15:42:29.303Z,14.00
2018-04-04T15:44:56.796Z,13.80
2018-04-04T15:47:25.102Z,13.80
2018-04-04T15:49:52.616Z,13.70
2018-04-04T15:52:20.121Z,13.70
2018-04-04T15:54:48.440Z,13.60
2018-04-04T15:57:15.938Z,13.60
2018-04-04T15:59:43.440Z,13.70
2018-04-04T16:02:16.665Z,13.90
2018-04-04T16:04:44.937Z,13.80
2018-04-04T16:07:13.211Z,13.90
2018-04-04T16:09:40.751Z,13.80
2018-04-04T16:12:08.265Z,14.00
2018-04-04T16:14:36.533Z,14.10
2018-04-04T16:17:04.117Z,14.00
2018-04-04T16:19:38.796Z,14.10
2018-04-04T16:22:07.179Z,14.20
2018-04-04T16:24:34.730Z,14.30
2018-04-04T16:27:02.221Z,14.20
2018-04-04T16:29:30.476Z,14.30
2018-04-04T16:31:58.033Z,14.20
2018-04-04T16:34:25.561Z,14.40
2018-04-04T16:36:53.072Z,14.40
2018-04-04T16:39:20.634Z,14.40
2018-04-04T16:41:48.140Z,14.50
2018-04-04T16:44:15.690Z,14.50
2018-04-04T16:46:43.190Z,14.50
2018-04-04T16:49:11.447Z,14.60
2018-04-04T16:51:38.980Z,14.50
2018-04-04T16:54:06.481Z,14.60
2018-04-04T16:56:33.974Z,14.60
2018-04-04T16:59:01.500Z,14.50
2018-04-04T17:01:28.992Z,14.40
2018-04-04T17:03:56.521Z,14.30
2018-04-04T17:06:24.009Z,14.30
2018-04-04T17:08:52.266Z,14.10
2018-04-04T17:11:20.564Z,14.10
2018-04-04T17:13:48.061Z,14.10
2018-04-04T17:16:15.569Z,14.10
2018-04-04T17:18:43.113Z,13.90
2018-04-04T17:21:10.606Z,13.90
2018-04-04T17:23:38.105Z,13.70
2018-04-04T17:26:06.420Z,13.30
2018-04-04T17:28:33.952Z,13.30
2018-04-04T17:31:01.452Z,13.30
2018-04-04T17:33:28.991Z,13.30
2018-04-04T17:35:57.252Z,13.20
2018-04-04T17:38:24.837Z,13.10
2018-04-04T17:40:52.345Z,13.20
2018-04-04T17:43:20.644Z,13.40
2018-04-04T17:45:48.199Z,13.30
2018-04-04T17:48:15.677Z,13.30
2018-04-04T17:50:43.224Z,13.00
2018-04-04T17:53:10.719Z,12.90
2018-04-04T17:55:38.209Z,13.00
2018-04-04T17:58:05.732Z,13.00
2018-04-04T18:00:33.232Z,13.00
2018-04-04T18:03:00.725Z,13.10
2018-04-04T18:05:28.288Z,13.00
2018-04-04T18:07:55.790Z,13.00
2018-04-04T18:10:23.303Z,13.10
2018-04-04T18:12:51.609Z,12.90
2018-04-04T18:15:19.110Z,12.80
2018-04-04T18:17:46.628Z,12.80
2018-04-04T18:20:14.155Z,12.80
2018-04-04T18:22:41.659Z,12.80
2018-04-04T18:25:09.203Z,12.90
2018-04-04T18:27:36.688Z,12.60
2018-04-04T18:30:04.221Z,12.60
2018-04-04T18:32:31.770Z,12.60
2018-04-04T18:34:59.272Z,12.50
2018-04-04T18:37:26.770Z,12.50
2018-04-04T18:39:54.322Z,12.50
2018-04-04T18:42:21.852Z,12.40
2018-04-04T18:44:50.092Z,12.30
2018-04-04T18:47:17.629Z,12.30
2018-04-04T18:49:45.132Z,12.30
2018-04-04T18:52:12.672Z,12.30
2018-04-04T18:54:40.162Z,12.30
2018-04-04T18:57:07.661Z,12.40
2018-04-04T18:59:35.226Z,12.50
2018-04-04T19:02:08.089Z,12.50
2018-04-04T19:04:35.620Z,12.40
2018-04-04T19:07:03.949Z,12.20
2018-04-04T19:09:32.169Z,12.30
2018-04-04T19:11:59.712Z,12.20
2018-04-04T19:14:27.261Z,12.20
2018-04-04T19:16:54.767Z,12.00
2018-04-04T19:19:22.269Z,12.00
2018-04-04T19:21:49.832Z,12.00
2018-04-04T19:24:17.338Z,11.90
2018-04-04T19:26:44.854Z,11.90
2018-04-04T19:29:12.393Z,11.80
2018-04-04T19:31:39.903Z,11.70
2018-04-04T19:34:07.410Z,11.90
2018-04-04T19:36:34.976Z,11.90
2018-04-04T19:39:04.249Z,12.00
2018-04-04T19:41:33.137Z,11.90
2018-04-04T19:44:00.688Z,11.90
2018-04-04T19:46:28.179Z,11.70
2018-04-04T19:48:55.677Z,11.60
2018-04-04T19:51:23.234Z,11.50
2018-04-04T19:53:50.745Z,11.40
2018-04-04T19:56:19.010Z,11.30
2018-04-04T19:58:46.573Z,11.30
2018-04-04T20:01:14.069Z,11.30
2018-04-04T20:03:42.392Z,11.40
2018-04-04T20:06:09.917Z,11.30
2018-04-04T20:08:37.419Z,11.30
2018-04-04T20:11:05.729Z,11.20
2018-04-04T20:13:33.224Z,11.20
2018-04-04T20:16:00.730Z,11.40
2018-04-04T20:18:28.273Z,11.30
2018-04-04T20:20:55.783Z,11.20
2018-04-04T20:23:24.051Z,11.00
2018-04-04T20:25:51.582Z,11.00
2018-04-04T20:28:19.082Z,11.10
2018-04-04T20:30:46.594Z,11.30
2018-04-04T20:33:14.883Z,11.10
2018-04-04T20:35:43.147Z,11.10
2018-04-04T20:38:10.683Z,11.00
2018-04-04T20:40:38.198Z,11.10
2018-04-04T20:43:06.462Z,11.10
2018-04-04T20:45:34.001Z,11.10
2018-04-04T20:48:01.499Z,11.10
2018-04-04T20:50:29.027Z,11.10
2018-04-04T20:52:56.528Z,10.90
2018-04-04T20:55:27.790Z,11.00
2018-04-04T20:57:55.325Z,11.00
2018-04-04T21:00:22.838Z,11.00
2018-04-04T21:02:50.336Z,11.00
2018-04-04T21:05:18.642Z,11.00
2018-04-04T21:07:46.147Z,10.90
2018-04-04T21:10:13.654Z,11.00
2018-04-04T21:12:41.276Z,11.10
2018-04-04T21:15:08.781Z,11.20
2018-04-04T21:17:36.306Z,11.20
2018-04-04T21:20:03.851Z,11.20
2018-04-04T21:22:31.355Z,11.40
2018-04-04T21:25:04.841Z,11.30
2018-04-04T21:27:33.133Z,11.20
2018-04-04T21:30:01.617Z,11.20
2018-04-04T21:32:29.970Z,11.30
2018-04-04T21:34:57.470Z,11.30
2018-04-04T21:37:24.966Z,11.30
2018-04-04T21:39:52.517Z,11.20
2018-04-04T21:42:20.778Z,11.20
2018-04-04T21:44:48.289Z,11.20
2018-04-04T21:47:29.145Z,11.40
2018-04-04T21:49:56.648Z,11.40
2018-04-04T21:52:24.142Z,11.40
2018-04-04T21:54:52.428Z,11.50
2018-04-04T21:57:19.925Z,11.50
2018-04-04T21:59:47.494Z,11.50
2018-04-04T22:02:14.991Z,11.50
2018-04-04T22:04:42.488Z,11.50
2018-04-04T22:07:10.792Z,11.50
2018-04-04T22:09:38.289Z,11.40
2018-04-04T22:12:05.802Z,11.50
2018-04-04T22:14:34.118Z,11.50
2018-04-04T22:17:01.621Z,11.50
2018-04-04T22:19:29.118Z,11.60
2018-04-04T22:21:56.658Z,11.70
2018-04-04T22:24:24.216Z,11.50
2018-04-04T22:26:51.715Z,11.50
2018-04-04T22:29:19.211Z,11.50
2018-04-04T22:31:46.748Z,11.50
2018-04-04T22:34:14.668Z,11.50
2018-04-04T22:36:42.210Z,11.60
2018-04-04T22:39:09.729Z,11.60
2018-04-04T22:41:37.236Z,11.50
2018-04-04T22:44:04.777Z,11.40
2018-04-04T22:46:32.287Z,11.50
2018-04-04T22:48:59.796Z,11.50
2018-04-04T22:51:28.129Z,11.30
2018-04-04T22:53:55.653Z,11.20
2018-04-04T22:56:23.915Z,11.40
2018-04-04T22:58:51.443Z,11.30
2018-04-04T23:01:18.968Z,11.40
2018-04-04T23:03:46.455Z,11.50
2018-04-04T23:06:14.785Z,11.40
2018-04-04T23:08:42.282Z,11.40
2018-04-04T23:11:09.821Z,11.30
2018-04-04T23:13:37.325Z,11.30
2018-04-04T23:16:04.827Z,11.20
2018-04-04T23:18:33.146Z,11.30
2018-04-04T23:21:01.431Z,11.40
2018-04-04T23:23:28.938Z,11.30
2018-04-04T23:25:56.464Z,11.40
2018-04-04T23:28:24.006Z,11.40
2018-04-04T23:30:51.514Z,11.30
2018-04-04T23:33:19.012Z,11.40
2018-04-04T23:35:49.770Z,11.50
2018-04-04T23:38:17.278Z,11.50
2018-04-04T23:40:45.537Z,11.50
2018-04-04T23:43:13.076Z,11.50
2018-04-04T23:45:40.589Z,11.50
2018-04-04T23:48:08.142Z,11.40
2018-04-04T23:50:35.641Z,11.40
2018-04-04T23:53:03.135Z,11.40
2018-04-04T23:55:30.673Z,11.50
2018-04-04T23:57:58.198Z,11.40
